Time;durP1;ratioP1;P1;durP2;ratioP2;P2;SDS_P1;SDS_P2;PMS_P1;PMS_P2;Temp;Humidity;BMP_temperature;BMP_pressure;BME280_temperature;BME280_humidity;BME280_pressure;Samples;Min_cycle;Max_cycle;Signal;HPM_P1;HPM_P2
2022/11/16 00:01:28;;;;;;;25.00;16.05;;;9.00;99.90;;;;;;4990379;28;20551;-74
2022/11/16 00:03:58;;;;;;;24.95;16.92;;;9.00;99.90;;;;;;4948088;28;20632;-72
2022/11/16 00:06:24;;;;;;;24.02;16.08;;;9.00;99.90;;;;;;4921088;28;20050;-72
2022/11/16 00:11:39;;;;;;;27.02;16.75;;;9.00;99.90;;;;;;4931222;28;20090;-72
2022/11/16 00:14:05;;;;;;;23.65;16.50;;;9.00;99.90;;;;;;4910786;28;20035;-72
2022/11/16 00:16:31;;;;;;;25.48;16.58;;;9.00;99.90;;;;;;4919001;28;20074;-71
2022/11/16 00:18:59;;;;;;;24.30;16.20;;;9.00;99.90;;;;;;4917643;28;20884;-71
2022/11/16 00:21:26;;;;;;;24.27;16.05;;;9.00;99.90;;;;;;4933313;28;20032;-69
2022/11/16 00:23:52;;;;;;;25.17;16.55;;;9.00;99.90;;;;;;4911883;28;20354;-69
2022/11/16 00:26:19;;;;;;;26.50;18.63;;;9.10;99.90;;;;;;4917171;28;20373;-69
2022/11/16 00:28:45;;;;;;;39.75;21.10;;;9.10;99.90;;;;;;4897050;28;20036;-69
2022/11/16 00:31:10;;;;;;;29.80;19.92;;;9.10;99.90;;;;;;4912712;28;20093;-69
2022/11/16 00:33:37;;;;;;;29.23;18.25;;;9.00;99.90;;;;;;4903587;28;20048;-69
2022/11/16 00:36:05;;;;;;;28.23;17.50;;;9.10;99.90;;;;;;4892268;28;20116;-69
2022/11/16 00:38:32;;;;;;;26.75;16.95;;;9.10;99.90;;;;;;4916043;28;20125;-69
2022/11/16 00:40:58;;;;;;;29.65;17.35;;;9.10;99.90;;;;;;4911102;28;20791;-69
2022/11/16 00:43:24;;;;;;;27.98;17.65;;;9.10;99.90;;;;;;4909465;28;20107;-71
2022/11/16 00:45:49;;;;;;;25.42;16.85;;;9.10;99.90;;;;;;4914364;28;20131;-72
2022/11/16 00:48:15;;;;;;;27.67;17.48;;;9.10;99.90;;;;;;4908711;28;20806;-72
2022/11/16 00:50:40;;;;;;;24.48;17.15;;;9.00;99.90;;;;;;4898771;28;20046;-72
2022/11/16 00:53:07;;;;;;;23.92;16.83;;;9.10;99.90;;;;;;4912780;28;20506;-73
2022/11/16 00:55:33;;;;;;;25.80;16.77;;;9.00;99.90;;;;;;4903291;28;20063;-73
2022/11/16 00:57:59;;;;;;;23.95;16.20;;;8.90;99.90;;;;;;4915430;28;20040;-73
2022/11/16 01:00:25;;;;;;;22.60;15.80;;;8.90;99.90;;;;;;4908563;28;20063;-72
2022/11/16 01:02:53;;;;;;;24.52;16.60;;;9.00;99.90;;;;;;4924360;28;20256;-72
2022/11/16 01:05:20;;;;;;;24.02;16.10;;;9.00;99.90;;;;;;4913432;28;20083;-72
2022/11/16 01:07:46;;;;;;;25.85;16.60;;;9.00;99.90;;;;;;4897193;28;20664;-72
2022/11/16 01:10:13;;;;;;;23.88;16.20;;;9.00;99.90;;;;;;4911427;28;20040;-72
2022/11/16 01:12:39;;;;;;;22.33;15.93;;;9.00;99.90;;;;;;4905095;28;20036;-73
2022/11/16 01:15:09;;;;;;;21.80;15.75;;;9.00;99.90;;;;;;4909051;28;20054;-72
2022/11/16 01:17:35;;;;;;;23.85;15.45;;;8.90;99.90;;;;;;4904765;28;20666;-72
2022/11/16 01:20:04;;;;;;;26.80;14.93;;;8.90;99.90;;;;;;4903213;28;20123;-72
2022/11/16 01:22:30;;;;;;;21.80;14.43;;;8.90;99.90;;;;;;4910198;28;20051;-73
2022/11/16 01:24:56;;;;;;;22.02;14.30;;;8.90;99.90;;;;;;4902037;28;20142;-70
2022/11/16 01:27:23;;;;;;;23.63;15.40;;;8.90;99.90;;;;;;4900940;28;20139;-72
2022/11/16 01:29:48;;;;;;;21.60;14.38;;;8.90;99.90;;;;;;4898039;28;20037;-73
2022/11/16 01:32:14;;;;;;;22.77;15.15;;;8.90;99.90;;;;;;4909902;28;20039;-73
2022/11/16 01:34:39;;;;;;;24.42;15.45;;;8.90;99.90;;;;;;4918739;28;20569;-73
2022/11/16 01:37:05;;;;;;;24.42;15.20;;;8.90;99.90;;;;;;4906060;28;20339;-74
2022/11/16 01:39:31;;;;;;;24.35;14.95;;;8.90;99.90;;;;;;4902401;28;20175;-69
2022/11/16 01:41:56;;;;;;;26.38;14.43;;;8.80;99.90;;;;;;4909580;28;20037;-69
2022/11/16 01:44:31;;;;;;;26.13;15.13;;;8.80;99.90;;;;;;4914129;28;20048;-69
2022/11/16 01:46:57;;;;;;;26.30;14.50;;;8.80;99.90;;;;;;4915707;28;20044;-69
2022/11/16 01:49:26;;;;;;;22.73;15.48;;;8.70;99.90;;;;;;4917634;28;20074;-69
2022/11/16 01:51:55;;;;;;;26.90;14.88;;;8.80;99.90;;;;;;4911653;28;20071;-69
2022/11/16 01:54:22;;;;;;;25.98;14.95;;;8.80;99.90;;;;;;4920625;28;20040;-69
2022/11/16 01:56:49;;;;;;;28.38;14.20;;;8.80;99.90;;;;;;4912055;28;20110;-69
2022/11/16 01:59:16;;;;;;;31.08;15.88;;;8.80;99.90;;;;;;4913527;28;20040;-69
2022/11/16 02:01:42;;;;;;;26.98;14.18;;;8.80;99.90;;;;;;4915800;28;20043;-69
2022/11/16 02:04:11;;;;;;;25.38;15.52;;;8.70;99.90;;;;;;4914779;28;20055;-69
2022/11/16 02:07:09;;;;;;;29.80;15.55;;;8.80;99.90;;;;;;4944332;28;20030;-70
2022/11/16 02:09:52;;;;;;;28.83;15.20;;;8.80;99.90;;;;;;4914830;28;20052;-70
2022/11/16 02:12:56;;;;;;;29.73;15.05;;;8.80;99.90;;;;;;4913952;28;20106;-70
2022/11/16 02:15:46;;;;;;;27.52;14.70;;;8.80;99.90;;;;;;4915725;28;20040;-69
2022/11/16 02:18:26;;;;;;;28.95;14.93;;;8.80;99.90;;;;;;4894105;28;20051;-74
2022/11/16 02:21:10;;;;;;;27.17;14.65;;;8.90;99.90;;;;;;4894287;28;20040;-74
2022/11/16 02:23:42;;;;;;;28.50;15.25;;;8.90;99.90;;;;;;4923969;28;20069;-74
2022/11/16 02:26:41;;;;;;;29.42;15.40;;;8.90;99.90;;;;;;4913182;28;20162;-74
2022/11/16 02:29:28;;;;;;;30.13;15.85;;;8.90;99.90;;;;;;4913773;28;20047;-74
2022/11/16 02:32:22;;;;;;;28.70;15.98;;;8.90;99.90;;;;;;4920901;28;20118;-74
2022/11/16 02:34:49;;;;;;;33.42;16.40;;;8.90;99.90;;;;;;4918281;28;20040;-73
2022/11/16 02:37:18;;;;;;;31.23;15.77;;;8.90;99.90;;;;;;4919767;28;20278;-74
2022/11/16 02:39:47;;;;;;;35.05;15.70;;;8.90;99.90;;;;;;4929254;28;20079;-73
2022/11/16 02:42:18;;;;;;;32.78;16.00;;;8.90;99.90;;;;;;4922780;28;20040;-74
2022/11/16 02:44:46;;;;;;;31.27;16.95;;;8.90;99.90;;;;;;4928106;28;20142;-73
2022/11/16 02:47:20;;;;;;;34.17;16.33;;;8.90;99.90;;;;;;4913665;28;20052;-73
2022/11/16 02:49:51;;;;;;;39.42;16.00;;;8.90;99.90;;;;;;4914090;28;21772;-73
2022/11/16 02:52:17;;;;;;;31.58;15.95;;;8.80;99.90;;;;;;4914782;28;20043;-74
2022/11/16 02:54:43;;;;;;;29.70;16.08;;;8.80;99.90;;;;;;4915851;28;20055;-74
2022/11/16 02:57:08;;;;;;;33.92;16.25;;;8.80;99.90;;;;;;4914689;28;20039;-74
2022/11/16 02:59:43;;;;;;;32.17;16.08;;;8.80;99.90;;;;;;4912288;28;20051;-73
2022/11/16 03:02:27;;;;;;;38.33;16.65;;;8.80;99.90;;;;;;4910973;28;20044;-73
2022/11/16 03:05:00;;;;;;;47.30;18.08;;;8.80;99.90;;;;;;4947228;28;20046;-74
2022/11/16 03:07:31;;;;;;;39.03;16.23;;;8.70;99.90;;;;;;4922605;28;20044;-73
2022/11/16 03:09:59;;;;;;;44.23;17.90;;;8.70;99.90;;;;;;4916684;28;20038;-73
2022/11/16 03:12:29;;;;;;;39.83;17.45;;;8.70;99.90;;;;;;4913318;28;20472;-73
2022/11/16 03:15:01;;;;;;;31.50;16.10;;;8.70;99.90;;;;;;4911690;28;20040;-73
2022/11/16 03:17:32;;;;;;;34.15;17.15;;;8.70;99.90;;;;;;4903556;28;20040;-73
2022/11/16 03:20:06;;;;;;;36.45;16.80;;;8.70;99.90;;;;;;4915288;28;20669;-73
2022/11/16 03:22:39;;;;;;;30.25;15.80;;;8.80;99.90;;;;;;4911186;28;20050;-73
2022/11/16 03:25:06;;;;;;;33.95;15.98;;;8.80;99.90;;;;;;4913929;28;20051;-73
2022/11/16 03:27:41;;;;;;;31.77;15.27;;;8.80;99.90;;;;;;4914065;28;20044;-73
2022/11/16 03:30:11;;;;;;;38.42;16.52;;;8.80;99.90;;;;;;4920523;28;20043;-70
2022/11/16 03:32:58;;;;;;;33.78;16.20;;;8.90;99.90;;;;;;4920274;28;20043;-70
2022/11/16 03:35:58;;;;;;;32.33;16.25;;;8.80;99.90;;;;;;4934958;28;20047;-73
2022/11/16 03:38:26;;;;;;;39.58;17.15;;;8.90;99.90;;;;;;4920097;28;20059;-73
2022/11/16 03:40:54;;;;;;;35.58;15.18;;;8.90;99.90;;;;;;4916560;28;20036;-73
2022/11/16 03:43:21;;;;;;;33.13;16.40;;;8.80;99.90;;;;;;4916972;28;20059;-73
2022/11/16 03:45:47;;;;;;;32.85;15.88;;;8.80;99.90;;;;;;4917582;28;20047;-73
2022/11/16 03:48:13;;;;;;;33.65;17.25;;;8.80;99.90;;;;;;4911861;28;20560;-73
2022/11/16 03:50:39;;;;;;;36.95;15.93;;;8.80;99.90;;;;;;4909102;28;20122;-73
2022/11/16 03:53:05;;;;;;;31.23;14.63;;;8.80;99.90;;;;;;4909161;28;20036;-73
2022/11/16 03:55:30;;;;;;;35.92;16.50;;;8.80;99.90;;;;;;4915931;28;20169;-73
2022/11/16 03:57:56;;;;;;;34.25;16.30;;;8.80;99.90;;;;;;4918547;28;20035;-73
2022/11/16 04:00:22;;;;;;;33.20;16.63;;;8.80;99.90;;;;;;4909667;28;20166;-73
2022/11/16 04:02:47;;;;;;;34.78;16.48;;;8.80;99.90;;;;;;4921806;28;20052;-73
2022/11/16 04:24:44;;;;;;;28.05;14.95;;;9.00;99.90;;;;;;4910796;28;20143;-73
2022/11/16 04:30:01;;;;;;;29.95;15.88;;;9.00;99.90;;;;;;4906618;28;20057;-73
2022/11/16 04:37:57;;;;;;;27.65;14.95;;;9.00;99.90;;;;;;4918057;28;20079;-73
2022/11/16 04:40:28;;;;;;;27.63;14.57;;;9.00;99.90;;;;;;4911262;28;20596;-73
2022/11/16 04:42:56;;;;;;;29.83;14.82;;;9.00;99.90;;;;;;4913021;28;20211;-73
2022/11/16 04:48:08;;;;;;;25.48;14.50;;;9.00;99.90;;;;;;4911960;28;20131;-73
2022/11/16 04:50:35;;;;;;;31.20;15.68;;;9.00;99.90;;;;;;4908143;28;20036;-73
2022/11/16 04:53:00;;;;;;;24.10;14.65;;;9.00;99.90;;;;;;4914007;28;20543;-73
2022/11/16 04:55:26;;;;;;;26.88;14.20;;;9.00;99.90;;;;;;4906842;28;20055;-73
2022/11/16 04:57:52;;;;;;;23.00;13.90;;;9.00;99.90;;;;;;4912249;28;20046;-74
2022/11/16 05:00:17;;;;;;;26.75;13.57;;;9.00;99.90;;;;;;4907651;28;20064;-74
2022/11/16 05:02:43;;;;;;;26.42;14.80;;;9.00;99.90;;;;;;4925964;28;20040;-73
2022/11/16 05:05:09;;;;;;;24.88;13.63;;;9.00;99.90;;;;;;4918391;28;20544;-74
2022/11/16 05:07:35;;;;;;;25.63;14.52;;;9.00;99.90;;;;;;4914548;28;20131;-74
2022/11/16 05:10:02;;;;;;;23.65;13.77;;;9.00;99.90;;;;;;4914244;28;20050;-73
2022/11/16 05:12:29;;;;;;;25.13;14.43;;;8.90;99.90;;;;;;4910361;28;20070;-73
2022/11/16 05:14:55;;;;;;;25.92;13.73;;;8.90;99.90;;;;;;4910471;28;20051;-73
2022/11/16 05:17:21;;;;;;;25.98;14.05;;;8.90;99.90;;;;;;4915556;28;20040;-74
2022/11/16 05:22:32;;;;;;;26.65;13.60;;;9.00;99.90;;;;;;4913992;28;20331;-73
2022/11/16 05:24:58;;;;;;;24.85;13.73;;;9.00;99.90;;;;;;4919194;28;20473;-69
2022/11/16 05:27:25;;;;;;;25.58;13.60;;;9.00;99.90;;;;;;4898256;28;20035;-71
2022/11/16 05:29:50;;;;;;;32.55;14.20;;;9.00;99.90;;;;;;4916586;28;20048;-69
2022/11/16 05:32:21;;;;;;;28.88;13.55;;;9.00;99.90;;;;;;4907184;28;20058;-70
2022/11/16 05:34:46;;;;;;;22.40;13.27;;;9.00;99.90;;;;;;4919018;28;20526;-72
2022/11/16 05:37:13;;;;;;;21.33;12.57;;;9.00;99.90;;;;;;4912810;28;20051;-70
2022/11/16 05:39:38;;;;;;;26.08;14.25;;;9.00;99.90;;;;;;4893427;28;20036;-70
2022/11/16 05:42:05;;;;;;;23.98;13.55;;;9.00;99.90;;;;;;4913518;28;21298;-70
2022/11/16 05:44:31;;;;;;;20.95;12.82;;;9.00;99.90;;;;;;4904024;28;20359;-70
2022/11/16 05:46:57;;;;;;;20.02;13.45;;;9.00;99.90;;;;;;4925991;28;20126;-70
2022/11/16 05:49:23;;;;;;;22.15;13.38;;;9.00;99.90;;;;;;4910367;28;20524;-72
2022/11/16 05:51:49;;;;;;;25.85;12.90;;;9.00;99.90;;;;;;4915025;28;20050;-74
2022/11/16 05:54:19;;;;;;;21.65;13.13;;;9.00;99.90;;;;;;4916441;28;20044;-74
2022/11/16 05:56:46;;;;;;;21.50;13.25;;;9.00;99.90;;;;;;4911637;28;20037;-74
2022/11/16 05:59:16;;;;;;;28.02;14.82;;;9.00;99.90;;;;;;4894331;28;20146;-74
2022/11/16 06:01:42;;;;;;;26.50;14.93;;;9.00;99.90;;;;;;4924993;28;20039;-73
2022/11/16 06:04:08;;;;;;;22.45;14.00;;;9.00;99.90;;;;;;4916067;28;20039;-74
2022/11/16 06:06:34;;;;;;;23.40;14.35;;;9.00;99.90;;;;;;4909779;28;20056;-72
2022/11/16 06:08:59;;;;;;;21.40;12.70;;;9.10;99.90;;;;;;4925559;28;20076;-72
2022/11/16 06:11:25;;;;;;;23.20;13.30;;;9.10;99.90;;;;;;4920655;28;20597;-72
2022/11/16 06:13:51;;;;;;;21.38;13.00;;;9.10;99.90;;;;;;4915156;28;20035;-73
2022/11/16 06:16:16;;;;;;;24.77;13.85;;;9.10;99.90;;;;;;4914396;28;20050;-73
2022/11/16 06:18:44;;;;;;;24.30;13.45;;;9.10;99.90;;;;;;4915192;28;20036;-74
2022/11/16 06:21:11;;;;;;;22.83;13.60;;;9.10;99.90;;;;;;4915403;28;20370;-75
2022/11/16 06:23:37;;;;;;;21.77;13.48;;;9.10;99.90;;;;;;4913068;28;20567;-74
2022/11/16 06:26:04;;;;;;;24.17;14.15;;;9.20;99.90;;;;;;4933423;28;20093;-70
2022/11/16 06:28:30;;;;;;;21.15;13.63;;;9.10;99.90;;;;;;4919485;28;20028;-70
2022/11/16 06:30:55;;;;;;;20.90;13.05;;;9.20;99.90;;;;;;4913852;28;20055;-71
2022/11/16 06:33:21;;;;;;;23.23;12.85;;;9.10;99.90;;;;;;4921650;28;20041;-70
2022/11/16 06:35:47;;;;;;;21.83;13.15;;;9.10;99.90;;;;;;4912086;28;20032;-71
2022/11/16 06:38:17;;;;;;;21.38;13.02;;;9.10;99.90;;;;;;4909033;28;20466;-70
2022/11/16 06:40:54;;;;;;;25.92;14.57;;;9.10;99.90;;;;;;4902343;28;20118;-70
2022/11/16 06:43:20;;;;;;;23.00;14.45;;;9.10;99.90;;;;;;4905205;28;20086;-71
2022/11/16 06:45:54;;;;;;;28.20;14.52;;;9.10;99.90;;;;;;4903076;28;20110;-74
2022/11/16 06:48:20;;;;;;;26.25;15.30;;;9.10;99.90;;;;;;4913491;28;20035;-76
2022/11/16 06:50:47;;;;;;;35.33;16.30;;;9.00;99.90;;;;;;4909619;28;20072;-76
2022/11/16 06:53:13;;;;;;;25.48;14.77;;;9.00;99.90;;;;;;4916150;28;20034;-77
2022/11/16 06:55:38;;;;;;;28.35;16.38;;;9.00;99.90;;;;;;4924040;28;20091;-77
2022/11/16 06:58:04;;;;;;;30.80;17.35;;;9.00;99.90;;;;;;4938496;28;20080;-75
2022/11/16 07:00:30;;;;;;;28.67;16.33;;;9.00;99.90;;;;;;4923865;28;20070;-76
2022/11/16 07:02:55;;;;;;;25.55;15.38;;;9.00;99.90;;;;;;4930946;28;20058;-76
2022/11/16 07:05:21;;;;;;;29.58;15.90;;;9.00;99.90;;;;;;4927033;28;20195;-71
2022/11/16 07:07:46;;;;;;;25.73;15.65;;;9.00;99.90;;;;;;4922071;28;20060;-70
2022/11/16 07:10:12;;;;;;;27.42;15.90;;;9.10;99.90;;;;;;4919484;28;20059;-70
2022/11/16 07:12:38;;;;;;;28.33;14.70;;;9.10;99.90;;;;;;4916697;28;20028;-71
2022/11/16 07:15:04;;;;;;;25.23;15.50;;;9.10;99.90;;;;;;4926231;28;20040;-70
2022/11/16 07:17:31;;;;;;;31.63;15.32;;;9.20;99.90;;;;;;4937208;28;20154;-70
2022/11/16 07:19:57;;;;;;;29.33;16.55;;;9.20;99.90;;;;;;4930553;28;22252;-70
2022/11/16 07:22:23;;;;;;;29.83;16.45;;;9.20;99.90;;;;;;4928017;28;20063;-70
2022/11/16 07:24:48;;;;;;;27.95;16.10;;;9.20;99.90;;;;;;4925272;28;20052;-70
2022/11/16 07:27:14;;;;;;;27.25;15.25;;;9.20;99.90;;;;;;4930623;28;20057;-70
2022/11/16 07:29:39;;;;;;;26.27;14.90;;;9.20;99.90;;;;;;4919867;28;20106;-70
2022/11/16 07:32:05;;;;;;;23.00;13.88;;;9.30;99.90;;;;;;4922650;28;20125;-70
2022/11/16 07:34:30;;;;;;;26.17;14.70;;;9.30;99.90;;;;;;4929223;28;20346;-70
2022/11/16 07:36:56;;;;;;;27.08;15.75;;;9.30;99.90;;;;;;4924005;28;20040;-70
2022/11/16 07:39:22;;;;;;;27.40;14.77;;;9.30;99.90;;;;;;4924558;28;20038;-70
2022/11/16 07:41:51;;;;;;;25.27;14.82;;;9.20;99.90;;;;;;4921142;28;20051;-76
2022/11/16 07:44:17;;;;;;;21.27;13.38;;;9.20;99.90;;;;;;4934398;28;20049;-76
2022/11/16 07:46:43;;;;;;;23.23;13.90;;;9.20;99.90;;;;;;4916995;28;20032;-76
2022/11/16 07:49:15;;;;;;;23.15;13.80;;;9.20;99.90;;;;;;4927882;28;20093;-75
2022/11/16 07:51:41;;;;;;;22.25;12.77;;;9.30;99.90;;;;;;4912753;28;20125;-76
2022/11/16 07:54:07;;;;;;;23.65;13.57;;;9.30;99.90;;;;;;4929733;28;20044;-76
2022/11/16 07:56:32;;;;;;;23.83;14.35;;;9.30;99.90;;;;;;4923460;28;20046;-76
2022/11/16 07:58:58;;;;;;;21.70;13.02;;;9.30;99.90;;;;;;4903147;28;20055;-74
2022/11/16 08:01:24;;;;;;;20.90;12.20;;;9.30;99.90;;;;;;4909780;28;20094;-76
2022/11/16 08:03:52;;;;;;;21.02;12.95;;;9.40;99.90;;;;;;4904251;28;20124;-76
2022/11/16 08:06:22;;;;;;;20.83;12.45;;;9.40;99.90;;;;;;4901696;28;20477;-76
2022/11/16 08:08:47;;;;;;;19.92;12.35;;;9.40;99.90;;;;;;4909022;28;20037;-76
2022/11/16 08:11:13;;;;;;;19.73;12.52;;;9.40;99.90;;;;;;4907958;28;21080;-76
2022/11/16 08:13:40;;;;;;;19.35;11.85;;;9.40;99.90;;;;;;4902081;28;20052;-76
2022/11/16 08:16:14;;;;;;;22.92;13.63;;;9.30;99.90;;;;;;4904583;28;20037;-76
2022/11/16 08:18:41;;;;;;;20.67;11.90;;;9.30;99.90;;;;;;4906461;28;20174;-76
2022/11/16 08:21:08;;;;;;;19.40;11.80;;;9.30;99.90;;;;;;4903526;28;20111;-71
2022/11/16 08:23:34;;;;;;;23.70;13.63;;;9.30;99.90;;;;;;4904291;28;20051;-70
2022/11/16 08:26:05;;;;;;;21.40;12.75;;;9.30;99.90;;;;;;4913010;28;20485;-70
2022/11/16 08:28:31;;;;;;;24.15;12.88;;;9.30;99.90;;;;;;4903357;28;20044;-70
2022/11/16 08:30:58;;;;;;;20.65;12.60;;;9.40;99.90;;;;;;4903330;28;20032;-70
2022/11/16 08:33:24;;;;;;;22.75;13.32;;;9.40;99.90;;;;;;4892730;28;20785;-70
2022/11/16 08:35:51;;;;;;;22.00;12.90;;;9.40;99.90;;;;;;4910627;28;20071;-70
2022/11/16 08:38:17;;;;;;;27.27;14.75;;;9.50;99.90;;;;;;4901269;28;20071;-70
2022/11/16 08:40:44;;;;;;;26.92;14.18;;;9.50;99.90;;;;;;4904454;28;20652;-76
2022/11/16 08:43:10;;;;;;;29.65;15.68;;;9.50;99.90;;;;;;4885802;28;20044;-77
2022/11/16 08:45:36;;;;;;;24.52;13.88;;;9.50;99.90;;;;;;4905785;28;20051;-76
2022/11/16 08:48:02;;;;;;;24.45;15.00;;;9.60;99.90;;;;;;4906054;28;20756;-76
2022/11/16 08:50:27;;;;;;;26.48;14.15;;;9.60;99.90;;;;;;4903072;28;20040;-76
2022/11/16 08:52:55;;;;;;;25.00;15.05;;;9.60;99.90;;;;;;4903853;28;20051;-76
2022/11/16 08:55:20;;;;;;;26.88;16.50;;;9.70;99.90;;;;;;4901512;28;20084;-77
2022/11/16 08:57:46;;;;;;;29.92;16.42;;;9.70;99.90;;;;;;4903247;28;20028;-76
2022/11/16 09:00:12;;;;;;;30.92;16.30;;;9.70;99.90;;;;;;4916361;28;20511;-70
2022/11/16 09:02:37;;;;;;;29.08;15.45;;;9.60;99.90;;;;;;4919913;28;20047;-71
2022/11/16 09:05:04;;;;;;;28.27;15.95;;;9.60;99.90;;;;;;4949195;28;20420;-70
2022/11/16 09:07:30;;;;;;;27.40;14.77;;;9.60;99.90;;;;;;4924771;28;20066;-71
2022/11/16 09:09:55;;;;;;;29.10;14.85;;;9.60;99.90;;;;;;4924632;28;20130;-70
2022/11/16 09:12:21;;;;;;;25.17;15.15;;;9.60;99.90;;;;;;4911780;28;20664;-70
2022/11/16 09:14:46;;;;;;;27.30;14.35;;;9.70;99.90;;;;;;4932648;28;20118;-70
2022/11/16 09:17:12;;;;;;;25.67;14.30;;;9.60;99.90;;;;;;4932210;28;20043;-70
2022/11/16 09:19:37;;;;;;;23.20;14.63;;;9.60;99.90;;;;;;4933361;28;20032;-70
2022/11/16 09:22:03;;;;;;;26.98;15.70;;;9.70;99.90;;;;;;4928881;28;20043;-70
2022/11/16 09:24:29;;;;;;;28.42;15.77;;;9.70;99.90;;;;;;4899709;28;20075;-70
2022/11/16 09:26:59;;;;;;;27.02;15.90;;;9.70;99.90;;;;;;4919610;28;22418;-70
2022/11/16 09:29:26;;;;;;;32.58;16.05;;;9.60;99.90;;;;;;4942263;28;20105;-71
2022/11/16 09:31:52;;;;;;;31.98;16.77;;;9.70;99.90;;;;;;4969137;28;20050;-71
2022/11/16 09:34:18;;;;;;;29.88;16.58;;;9.70;99.90;;;;;;4949828;28;20045;-70
2022/11/16 09:36:43;;;;;;;29.38;17.67;;;9.70;99.90;;;;;;4929614;28;20102;-71
2022/11/16 09:39:11;;;;;;;33.13;16.20;;;9.70;99.90;;;;;;4919070;28;20048;-70
2022/11/16 09:42:07;;;;;;;27.27;15.77;;;9.80;99.90;;;;;;4944430;28;20033;-70
2022/11/16 09:44:38;;;;;;;27.60;16.33;;;9.80;99.90;;;;;;4930284;28;20618;-70
2022/11/16 09:47:12;;;;;;;28.95;16.20;;;9.80;99.90;;;;;;4912693;28;21661;-71
2022/11/16 09:49:42;;;;;;;29.13;16.70;;;9.80;99.90;;;;;;4919961;28;20028;-70
2022/11/16 09:52:23;;;;;;;30.30;16.40;;;9.80;99.90;;;;;;4917707;28;20054;-71
2022/11/16 09:54:52;;;;;;;27.02;15.25;;;9.80;99.90;;;;;;4924083;28;20046;-71
2022/11/16 09:57:24;;;;;;;27.75;15.63;;;9.80;99.90;;;;;;4901951;28;21117;-76
2022/11/16 09:59:56;;;;;;;29.58;16.40;;;9.80;99.90;;;;;;4926263;28;20103;-77
2022/11/16 10:02:28;;;;;;;29.15;16.80;;;9.80;99.90;;;;;;4927119;28;20063;-76
2022/11/16 10:04:58;;;;;;;;;;;9.80;99.90;;;;;;4923464;28;20546;-77
2022/11/16 10:07:37;;;;;;;29.98;16.35;;;9.80;99.90;;;;;;4926100;28;19919;-76
2022/11/16 10:10:02;;;;;;;27.00;15.60;;;9.80;99.90;;;;;;4919397;28;20040;-75
2022/11/16 10:13:11;;;;;;;29.20;15.98;;;9.80;99.90;;;;;;4918175;28;20056;-76
2022/11/16 10:15:49;;;;;;;27.85;15.80;;;9.80;99.90;;;;;;4937005;28;20118;-76
2022/11/16 10:18:37;;;;;;;27.25;15.43;;;9.80;99.90;;;;;;4915920;28;20488;-77
2022/11/16 10:21:33;;;;;;;25.58;14.82;;;9.80;99.90;;;;;;4933562;28;20032;-76
2022/11/16 10:24:37;;;;;;;31.15;15.63;;;9.80;99.90;;;;;;4931672;28;20684;-76
2022/11/16 10:27:50;;;;;;;26.33;15.15;;;9.80;99.90;;;;;;4916653;28;20071;-77
2022/11/16 10:30:18;;;;;;;29.63;15.73;;;9.80;99.90;;;;;;4925177;28;20059;-77
2022/11/16 10:32:55;;;;;;;27.42;16.08;;;9.90;99.90;;;;;;4919415;28;20101;-76
2022/11/16 10:35:53;;;;;;;29.67;17.85;;;9.90;99.90;;;;;;4927800;28;20092;-76
2022/11/16 10:38:26;;;;;;;26.83;15.85;;;9.90;99.90;;;;;;4949278;28;20051;-76
2022/11/16 10:40:57;;;;;;;25.77;17.27;;;9.80;99.90;;;;;;4940548;28;20036;-76
2022/11/16 10:43:27;;;;;;;27.88;17.13;;;9.90;99.90;;;;;;4919035;28;20039;-76
2022/11/16 10:46:01;;;;;;;30.55;16.45;;;9.80;99.90;;;;;;4927335;28;20094;-76
2022/11/16 10:48:50;;;;;;;29.98;17.58;;;9.80;99.90;;;;;;4936639;28;20048;-76
2022/11/16 10:51:15;;;;;;;27.23;17.58;;;9.80;99.90;;;;;;4899837;28;20439;-76
2022/11/16 10:53:45;;;;;;;26.88;16.92;;;9.90;99.90;;;;;;4922456;28;20106;-75
2022/11/16 10:56:26;;;;;;;24.23;16.55;;;9.90;99.90;;;;;;4929565;28;20566;-76
2022/11/16 10:58:52;;;;;;;27.02;16.13;;;9.90;99.90;;;;;;4922294;28;20052;-75
2022/11/16 11:01:26;;;;;;;23.25;15.45;;;10.00;99.90;;;;;;4905801;28;20743;-75
2022/11/16 11:03:52;;;;;;;28.45;16.42;;;9.90;99.90;;;;;;4928370;28;20622;-76
2022/11/16 11:06:18;;;;;;;28.15;16.98;;;9.90;99.90;;;;;;4929367;28;20058;-76
2022/11/16 11:08:43;;;;;;;25.08;16.45;;;9.90;99.90;;;;;;4929312;28;24137;-76
2022/11/16 11:14:09;;;;;;;26.63;17.02;;;9.90;99.90;;;;;;4954407;28;20448;-76
2022/11/16 11:16:35;;;;;;;24.65;16.25;;;9.90;99.90;;;;;;4918989;28;20600;-75
2022/11/16 11:19:17;;;;;;;25.35;15.48;;;9.90;99.90;;;;;;4919241;28;20035;-77
2022/11/16 11:21:44;;;;;;;30.15;18.67;;;9.90;99.90;;;;;;4965359;28;20033;-76
2022/11/16 11:24:16;;;;;;;24.67;15.25;;;9.90;99.90;;;;;;4935265;28;20052;-75
2022/11/16 11:26:42;;;;;;;;;;;9.90;99.90;;;;;;4940095;28;20047;-76
2022/11/16 11:29:21;;;;;;;22.27;14.63;;;9.90;99.90;;;;;;4933417;28;21262;-75
2022/11/16 11:31:51;;;;;;;23.17;15.20;;;9.90;99.90;;;;;;4932236;28;20035;-71
2022/11/16 11:34:24;;;;;;;27.83;16.40;;;10.00;99.90;;;;;;4919006;28;20036;-71
2022/11/16 11:36:57;;;;;;;24.35;15.38;;;10.00;99.90;;;;;;4926918;28;20052;-71
2022/11/16 11:39:22;;;;;;;23.83;14.60;;;10.10;99.90;;;;;;4906881;28;20071;-71
2022/11/16 11:42:02;;;;;;;24.80;16.92;;;10.10;99.90;;;;;;4935335;28;21061;-71
2022/11/16 11:44:41;;;;;;;28.25;16.15;;;10.10;99.90;;;;;;4927790;28;20064;-71
2022/11/16 11:47:18;;;;;;;24.85;16.70;;;10.10;99.90;;;;;;4927848;28;20546;-70
2022/11/16 11:49:52;;;;;;;31.90;18.48;;;10.00;99.90;;;;;;4936479;28;20044;-71
2022/11/16 11:52:32;;;;;;;29.38;18.48;;;10.00;99.90;;;;;;4937725;28;20408;-70
2022/11/16 11:54:59;;;;;;;29.80;16.63;;;10.00;99.90;;;;;;4937758;28;20122;-71
2022/11/16 11:57:25;;;;;;;27.30;16.63;;;10.00;99.90;;;;;;4945935;28;20239;-71
2022/11/16 11:59:53;;;;;;;23.92;15.82;;;10.00;99.90;;;;;;4906749;28;20606;-71
2022/11/16 12:02:56;;;;;;;30.60;17.30;;;10.00;99.90;;;;;;4906691;28;20171;-70
2022/11/16 12:05:43;;;;;;;26.80;15.80;;;10.00;99.90;;;;;;4931206;28;20049;-70
2022/11/16 12:08:33;;;;;;;27.65;17.38;;;10.00;99.90;;;;;;4902604;28;20068;-70
2022/11/16 12:11:23;;;;;;;26.85;16.50;;;10.00;99.90;;;;;;4904457;28;20076;-70
2022/11/16 12:14:02;;;;;;;28.92;17.02;;;10.00;99.90;;;;;;4904554;28;20040;-71
2022/11/16 12:16:47;;;;;;;22.95;15.18;;;10.00;99.90;;;;;;4905682;28;20044;-70
2022/11/16 12:19:38;;;;;;;27.60;16.75;;;10.00;99.90;;;;;;4904953;28;20044;-71
2022/11/16 12:22:22;;;;;;;25.25;16.23;;;10.00;99.90;;;;;;4912831;28;20044;-71
2022/11/16 12:25:16;;;;;;;24.88;16.45;;;10.00;99.90;;;;;;4884366;28;20052;-71
2022/11/16 12:28:09;;;;;;;23.65;15.80;;;10.10;99.90;;;;;;4905726;28;20095;-70
2022/11/16 12:31:16;;;;;;;23.92;15.73;;;10.00;99.90;;;;;;4899874;28;20123;-75
2022/11/16 12:33:48;;;;;;;27.17;16.75;;;10.00;99.90;;;;;;4884596;28;20040;-75
2022/11/16 12:36:44;;;;;;;29.27;16.77;;;10.00;99.90;;;;;;4895717;28;20742;-75
2022/11/16 12:39:25;;;;;;;24.17;16.42;;;10.00;99.90;;;;;;4907703;28;20041;-75
2022/11/16 12:42:08;;;;;;;24.85;16.38;;;10.10;99.90;;;;;;4898220;28;20040;-75
2022/11/16 12:45:16;;;;;;;28.63;16.30;;;10.10;99.90;;;;;;4901753;28;20056;-75
2022/11/16 12:48:06;;;;;;;26.17;15.70;;;10.10;99.90;;;;;;4897055;28;20040;-71
2022/11/16 12:50:34;;;;;;;27.73;16.33;;;10.10;99.90;;;;;;4902688;28;20509;-71
2022/11/16 12:53:24;;;;;;;25.75;17.25;;;10.10;99.90;;;;;;4899501;28;20102;-71
2022/11/16 12:56:25;;;;;;;25.55;16.38;;;10.10;99.90;;;;;;4906347;28;20099;-71
2022/11/16 12:59:24;;;;;;;25.08;16.83;;;10.10;99.90;;;;;;4858542;28;20115;-71
2022/11/16 13:02:26;;;;;;;23.65;16.30;;;10.10;99.90;;;;;;4901201;28;20044;-71
2022/11/16 13:05:14;;;;;;;24.42;16.98;;;10.10;99.90;;;;;;4898345;28;20051;-71
2022/11/16 13:07:47;;;;;;;22.95;16.15;;;10.20;99.90;;;;;;4901210;28;20127;-71
2022/11/16 13:10:20;;;;;;;20.42;14.38;;;10.20;99.90;;;;;;4901660;28;20047;-71
2022/11/16 13:12:49;;;;;;;21.80;15.55;;;10.20;99.90;;;;;;4898299;28;20119;-70
2022/11/16 13:15:18;;;;;;;23.05;15.90;;;10.20;99.90;;;;;;4893989;28;20108;-71
2022/11/16 13:17:52;;;;;;;25.70;15.82;;;10.20;99.90;;;;;;4897634;28;20849;-71
2022/11/16 13:20:24;;;;;;;22.85;15.15;;;10.20;99.90;;;;;;4878989;28;20040;-71
2022/11/16 13:22:59;;;;;;;24.83;16.42;;;10.20;99.90;;;;;;4900475;28;20048;-70
2022/11/16 13:25:37;;;;;;;21.98;14.93;;;10.20;99.90;;;;;;4894087;28;20055;-70
2022/11/16 13:28:03;;;;;;;20.88;15.55;;;10.20;99.90;;;;;;4894438;28;20127;-71
2022/11/16 13:30:44;;;;;;;22.88;15.52;;;10.20;99.90;;;;;;4900360;28;20051;-71
2022/11/16 13:33:39;;;;;;;27.48;17.27;;;10.20;99.90;;;;;;4927150;28;20752;-71
2022/11/16 13:36:36;;;;;;;23.35;16.98;;;10.20;99.90;;;;;;4905298;28;20032;-70